Time;durP1;ratioP1;P1;durP2;ratioP2;P2;SDS_P1;SDS_P2;PMS_P1;PMS_P2;Temp;Humidity;BMP_temperature;BMP_pressure;BME280_temperature;BME280_humidity;BME280_pressure;Samples;Min_cycle;Max_cycle;Signal;HPM_P1;HPM_P2
2022/09/29 00:00:35;;;;;;;6.10;4.03;;;24.80;58.60;;;;;;5013189;28;20030;-74
2022/09/29 00:03:01;;;;;;;8.10;4.68;;;24.70;58.70;;;;;;5015574;28;20041;-75
2022/09/29 00:05:27;;;;;;;5.82;3.58;;;24.70;58.70;;;;;;5004688;28;20129;-74
2022/09/29 00:07:53;;;;;;;6.28;4.28;;;24.80;58.80;;;;;;5006006;28;20139;-74
2022/09/29 00:10:19;;;;;;;6.78;3.72;;;24.80;58.70;;;;;;5006470;28;20146;-75
2022/09/29 00:12:46;;;;;;;6.50;4.13;;;24.80;58.80;;;;;;4988809;28;20105;-74
2022/09/29 00:15:12;;;;;;;7.35;3.58;;;24.80;58.80;;;;;;5004515;28;20117;-74
2022/09/29 00:17:39;;;;;;;7.28;3.80;;;24.80;58.90;;;;;;5005266;28;20054;-74
2022/09/29 00:20:05;;;;;;;9.20;3.75;;;24.60;58.80;;;;;;4973353;28;20046;-74
2022/09/29 00:22:31;;;;;;;5.22;4.40;;;24.60;58.80;;;;;;5006621;28;20510;-73
2022/09/29 00:24:57;;;;;;;8.88;4.20;;;24.60;59.00;;;;;;5003831;28;20053;-73
2022/09/29 00:27:23;;;;;;;8.20;4.22;;;24.50;59.00;;;;;;4988289;28;20026;-73
2022/09/29 00:29:49;;;;;;;8.68;4.75;;;24.70;59.00;;;;;;5002688;28;20057;-74
2022/09/29 00:32:15;;;;;;;4.05;3.60;;;24.70;59.00;;;;;;5005295;28;20037;-74
2022/09/29 00:34:41;;;;;;;6.93;3.85;;;24.70;59.00;;;;;;5005414;28;20403;-73
2022/09/29 00:37:07;;;;;;;7.72;4.25;;;24.70;59.00;;;;;;5005454;28;20053;-73
2022/09/29 00:39:33;;;;;;;5.68;3.90;;;24.70;59.10;;;;;;4988992;28;20394;-74
2022/09/29 00:41:59;;;;;;;8.45;4.65;;;24.60;59.00;;;;;;5008070;28;20045;-73
2022/09/29 00:45:03;;;;;;;11.98;4.25;;;24.60;59.00;;;;;;5027075;28;20037;-73
2022/09/29 00:47:32;;;;;;;6.25;4.00;;;24.70;59.10;;;;;;5030541;28;20025;-73
2022/09/29 00:50:03;;;;;;;6.38;4.10;;;24.60;59.00;;;;;;5030343;28;20125;-73
2022/09/29 00:52:33;;;;;;;6.82;4.50;;;24.70;59.20;;;;;;5031724;28;20033;-73
2022/09/29 00:55:20;;;;;;;6.80;4.38;;;24.70;59.10;;;;;;5032296;28;20094;-74
2022/09/29 00:58:00;;;;;;;7.95;3.80;;;24.70;59.00;;;;;;5028757;28;20037;-73
2022/09/29 01:00:26;;;;;;;7.32;3.95;;;24.70;59.00;;;;;;5027627;28;20034;-73
2022/09/29 01:03:00;;;;;;;10.18;3.90;;;24.70;59.10;;;;;;5030416;28;20045;-74
2022/09/29 01:05:32;;;;;;;6.13;3.72;;;24.60;59.00;;;;;;5019192;28;20076;-74
2022/09/29 01:08:07;;;;;;;7.00;3.90;;;24.60;59.00;;;;;;5012121;28;20041;-74
2022/09/29 01:10:34;;;;;;;7.35;3.83;;;24.60;59.20;;;;;;5000846;28;20482;-73
2022/09/29 01:13:00;;;;;;;7.90;4.10;;;24.50;59.20;;;;;;4969130;28;20038;-74
2022/09/29 01:15:29;;;;;;;8.25;4.00;;;24.60;59.20;;;;;;4994075;28;20034;-73
2022/09/29 01:17:55;;;;;;;9.85;3.67;;;24.40;59.10;;;;;;5021101;28;20033;-74
2022/09/29 01:20:22;;;;;;;5.88;3.50;;;24.50;59.20;;;;;;4966720;28;20505;-73
2022/09/29 01:23:25;;;;;;;7.05;4.00;;;24.50;59.30;;;;;;5015728;28;20091;-73
2022/09/29 01:25:57;;;;;;;5.50;3.53;;;24.40;59.30;;;;;;5013184;28;20042;-73
2022/09/29 01:29:02;;;;;;;5.32;3.20;;;24.50;59.40;;;;;;5006067;28;20030;-74
2022/09/29 01:31:43;;;;;;;8.38;3.78;;;24.40;59.30;;;;;;5013794;28;20042;-74
2022/09/29 01:34:18;;;;;;;5.60;3.55;;;24.40;59.30;;;;;;5015472;28;20038;-73
2022/09/29 01:36:47;;;;;;;6.80;3.50;;;24.50;59.40;;;;;;5016609;28;20164;-74
2022/09/29 01:39:30;;;;;;;4.95;3.92;;;24.60;59.40;;;;;;5015839;28;20423;-73
2022/09/29 01:42:10;;;;;;;5.65;3.08;;;24.40;59.30;;;;;;5016951;28;20644;-74
2022/09/29 01:44:53;;;;;;;10.00;4.40;;;24.40;59.30;;;;;;5012023;28;20033;-73
2022/09/29 01:47:27;;;;;;;6.80;3.83;;;24.50;59.50;;;;;;5015570;28;20033;-73
2022/09/29 01:49:59;;;;;;;4.93;3.30;;;24.50;59.50;;;;;;4996676;28;20283;-73
2022/09/29 01:52:39;;;;;;;7.40;3.00;;;24.40;59.30;;;;;;5017116;28;20053;-73
2022/09/29 01:55:10;;;;;;;3.75;2.50;;;24.50;59.50;;;;;;5013091;28;20061;-73
2022/09/29 01:57:45;;;;;;;5.78;3.05;;;24.40;59.30;;;;;;5022578;28;20022;-74
2022/09/29 02:00:14;;;;;;;7.13;3.25;;;24.40;59.30;;;;;;5015088;28;20367;-74
2022/09/29 02:02:54;;;;;;;6.10;3.08;;;24.40;59.30;;;;;;5019908;28;20520;-74
2022/09/29 02:05:27;;;;;;;3.63;3.17;;;24.50;59.50;;;;;;5006856;28;20188;-74
2022/09/29 02:07:56;;;;;;;5.55;3.60;;;24.40;59.40;;;;;;5021859;28;20479;-73
2022/09/29 02:10:28;;;;;;;7.65;3.13;;;24.40;59.50;;;;;;5019364;28;20034;-73
2022/09/29 02:12:56;;;;;;;4.10;3.25;;;24.40;59.50;;;;;;5003219;28;20661;-73
2022/09/29 02:15:30;;;;;;;6.78;3.58;;;24.30;59.50;;;;;;4993481;28;20397;-73
2022/09/29 02:18:02;;;;;;;6.00;4.10;;;24.40;59.60;;;;;;5018579;28;20037;-74
2022/09/29 02:20:28;;;;;;;6.88;3.70;;;24.40;59.50;;;;;;5013012;28;20026;-74
2022/09/29 02:22:55;;;;;;;4.55;3.17;;;24.20;59.40;;;;;;5022695;28;20025;-74
2022/09/29 02:25:22;;;;;;;4.70;3.03;;;24.30;59.60;;;;;;5010177;28;20038;-74
2022/09/29 02:27:49;;;;;;;8.80;2.95;;;24.30;59.50;;;;;;5017234;28;20046;-73
2022/09/29 02:30:16;;;;;;;3.70;3.00;;;24.20;59.60;;;;;;5017075;28;20136;-74
2022/09/29 02:32:42;;;;;;;4.05;2.40;;;24.20;59.60;;;;;;5018086;28;20149;-73
2022/09/29 02:35:11;;;;;;;6.40;3.45;;;24.20;59.60;;;;;;5013100;28;20179;-74
2022/09/29 02:38:00;;;;;;;4.03;2.78;;;24.30;59.80;;;;;;5021301;28;20025;-73
2022/09/29 02:40:41;;;;;;;3.08;2.63;;;24.30;59.80;;;;;;5012907;28;20475;-73
2022/09/29 02:43:39;;;;;;;4.30;2.95;;;24.20;59.70;;;;;;5014753;28;20057;-74
2022/09/29 02:46:30;;;;;;;5.35;3.20;;;24.20;59.60;;;;;;4981780;28;20049;-74
2022/09/29 02:49:13;;;;;;;5.70;3.38;;;24.20;59.70;;;;;;4987665;28;20036;-73
2022/09/29 02:51:55;;;;;;;4.00;2.95;;;24.00;59.80;;;;;;4979518;28;20053;-74
2022/09/29 02:54:53;;;;;;;3.40;3.05;;;24.00;59.90;;;;;;4982757;28;20108;-73
2022/09/29 02:57:48;;;;;;;6.03;3.25;;;24.20;59.90;;;;;;4983143;28;20627;-73
2022/09/29 03:00:17;;;;;;;4.80;3.70;;;24.10;59.90;;;;;;4976912;28;20152;-73
2022/09/29 03:02:44;;;;;;;4.78;3.33;;;24.20;59.80;;;;;;4984974;28;20034;-73
2022/09/29 03:05:13;;;;;;;5.10;3.20;;;24.20;59.80;;;;;;5012439;28;20124;-74
2022/09/29 03:07:39;;;;;;;5.15;4.20;;;24.30;59.80;;;;;;5017593;28;20088;-73
2022/09/29 03:10:07;;;;;;;4.63;3.38;;;24.20;59.60;;;;;;5000186;28;20131;-74
2022/09/29 03:12:34;;;;;;;4.53;3.08;;;24.20;59.70;;;;;;4956976;28;20043;-74
2022/09/29 03:15:00;;;;;;;5.15;3.25;;;24.30;59.90;;;;;;4940992;28;20050;-73
2022/09/29 03:17:26;;;;;;;7.32;3.20;;;24.30;59.80;;;;;;4951749;28;20093;-74
2022/09/29 03:19:52;;;;;;;4.88;3.28;;;24.30;59.70;;;;;;4957943;28;20539;-74
2022/09/29 03:22:18;;;;;;;8.30;3.13;;;24.30;59.70;;;;;;4937475;28;20116;-73
2022/09/29 03:24:44;;;;;;;5.00;3.78;;;24.40;59.70;;;;;;4976871;28;20236;-74
2022/09/29 03:27:11;;;;;;;9.15;3.47;;;24.30;59.70;;;;;;4980369;28;20077;-73
2022/09/29 03:29:37;;;;;;;7.80;3.35;;;24.40;59.70;;;;;;4976995;28;20042;-73
2022/09/29 03:32:04;;;;;;;4.45;2.97;;;24.50;59.80;;;;;;4972689;28;20146;-74
2022/09/29 03:34:31;;;;;;;9.40;3.47;;;24.50;59.80;;;;;;4972578;28;20066;-74
2022/09/29 03:36:57;;;;;;;4.45;3.08;;;24.40;59.50;;;;;;4959396;28;20069;-73
2022/09/29 03:39:23;;;;;;;9.07;3.55;;;24.60;59.50;;;;;;4962595;28;20031;-74
2022/09/29 03:41:49;;;;;;;5.05;3.45;;;24.60;59.40;;;;;;4976697;28;20039;-74
2022/09/29 03:44:16;;;;;;;7.35;3.42;;;24.60;59.30;;;;;;5012656;28;20146;-73
2022/09/29 03:46:42;;;;;;;6.18;3.40;;;24.60;59.20;;;;;;5025806;28;20049;-74
2022/09/29 03:49:12;;;;;;;4.28;3.47;;;24.60;59.10;;;;;;5027870;28;20112;-74
2022/09/29 03:51:39;;;;;;;7.47;3.67;;;24.70;59.20;;;;;;5028829;28;20091;-73
2022/09/29 03:54:05;;;;;;;9.80;3.78;;;24.60;59.30;;;;;;5029608;28;20453;-74
2022/09/29 03:56:32;;;;;;;4.85;3.47;;;24.60;59.40;;;;;;5024850;28;20033;-74
2022/09/29 03:58:58;;;;;;;6.93;4.10;;;24.60;59.40;;;;;;5026806;28;20029;-73
2022/09/29 04:01:24;;;;;;;8.98;3.55;;;24.60;59.40;;;;;;5025611;28;20037;-75
2022/09/29 04:03:50;;;;;;;10.52;3.60;;;24.60;59.40;;;;;;5026976;28;20087;-74
2022/09/29 04:06:16;;;;;;;5.78;4.18;;;24.70;59.50;;;;;;5027131;28;20112;-75
2022/09/29 04:08:42;;;;;;;9.98;3.92;;;24.70;59.60;;;;;;5028333;28;20047;-74
2022/09/29 04:11:08;;;;;;;5.57;3.58;;;24.70;59.50;;;;;;5027513;28;20076;-73
2022/09/29 04:13:34;;;;;;;6.85;3.70;;;24.50;59.30;;;;;;5026861;28;20449;-74
2022/09/29 04:16:03;;;;;;;9.55;3.90;;;24.50;59.40;;;;;;5031699;28;20041;-74
2022/09/29 04:18:30;;;;;;;8.35;3.90;;;24.40;59.30;;;;;;5028525;28;20104;-74
2022/09/29 04:20:59;;;;;;;6.50;3.65;;;24.50;59.60;;;;;;5028328;28;20156;-73
2022/09/29 04:23:28;;;;;;;7.93;4.10;;;24.60;59.60;;;;;;5031826;28;20022;-74
2022/09/29 04:25:55;;;;;;;17.55;4.45;;;24.60;59.50;;;;;;5031707;28;20518;-74
2022/09/29 04:28:22;;;;;;;11.13;3.95;;;24.50;59.50;;;;;;5032926;28;20104;-74
2022/09/29 04:30:48;;;;;;;6.82;4.15;;;24.40;59.60;;;;;;5030334;28;20030;-74
2022/09/29 04:33:14;;;;;;;5.13;3.65;;;24.40;59.60;;;;;;5031226;28;20025;-74
2022/09/29 04:35:40;;;;;;;8.20;3.40;;;24.50;59.70;;;;;;5031522;28;20053;-73
2022/09/29 04:38:07;;;;;;;9.32;3.67;;;24.40;59.60;;;;;;5027011;28;20037;-73
2022/09/29 04:40:34;;;;;;;9.95;3.72;;;24.40;59.60;;;;;;5029452;28;20037;-73
2022/09/29 04:43:00;;;;;;;16.75;4.28;;;24.40;59.50;;;;;;5031206;28;20034;-74
2022/09/29 04:45:27;;;;;;;12.25;4.88;;;24.40;59.50;;;;;;5029867;28;20061;-74
2022/09/29 04:47:52;;;;;;;8.95;5.65;;;24.40;59.50;;;;;;5030495;28;20403;-74
2022/09/29 04:50:18;;;;;;;9.50;5.13;;;24.50;59.50;;;;;;5028408;28;20056;-74
2022/09/29 04:52:44;;;;;;;14.20;4.80;;;24.60;59.40;;;;;;5030559;28;20474;-75
2022/09/29 04:55:11;;;;;;;9.43;5.25;;;24.50;59.40;;;;;;5029694;28;20025;-75
2022/09/29 04:57:38;;;;;;;9.68;4.20;;;24.60;59.30;;;;;;5031627;28;20025;-71
2022/09/29 05:00:06;;;;;;;9.43;4.43;;;24.60;59.30;;;;;;5027872;28;20026;-72
2022/09/29 05:02:33;;;;;;;11.60;4.35;;;24.50;59.10;;;;;;4977205;28;20042;-74
2022/09/29 05:05:00;;;;;;;6.82;4.10;;;24.50;59.40;;;;;;4976749;28;20050;-73
2022/09/29 05:07:26;;;;;;;4.22;1.83;;;24.50;59.00;;;;;;4981698;28;20631;-73
2022/09/29 05:09:52;;;;;;;2.90;1.90;;;24.50;54.40;;;;;;4978798;28;20038;-73
2022/09/29 05:12:18;;;;;;;2.72;1.50;;;24.50;53.60;;;;;;4960588;28;20047;-72
2022/09/29 05:14:44;;;;;;;2.42;1.98;;;24.60;56.70;;;;;;4978627;28;20049;-73
2022/09/29 05:17:09;;;;;;;8.25;3.30;;;24.70;53.30;;;;;;4980680;28;20098;-73
2022/09/29 05:19:35;;;;;;;3.45;1.85;;;24.80;53.90;;;;;;4986840;28;20030;-72
2022/09/29 05:22:01;;;;;;;2.90;2.05;;;24.80;55.00;;;;;;4985306;28;20072;-75
2022/09/29 05:24:27;;;;;;;5.38;3.03;;;24.90;55.00;;;;;;4964351;28;20128;-76
2022/09/29 05:26:54;;;;;;;5.00;2.78;;;25.00;52.60;;;;;;4971291;28;20051;-72
2022/09/29 05:29:20;;;;;;;0.65;0.65;;;24.90;53.20;;;;;;4978846;28;20050;-72
2022/09/29 05:31:46;;;;;;;9.93;4.70;;;25.00;57.30;;;;;;4959772;28;20068;-73
2022/09/29 05:34:12;;;;;;;7.40;4.28;;;25.00;54.80;;;;;;5023309;28;20068;-73
2022/09/29 05:36:38;;;;;;;9.20;5.18;;;25.10;59.90;;;;;;5033067;28;20076;-72
2022/09/29 05:39:04;;;;;;;8.50;3.92;;;25.30;59.70;;;;;;5031750;28;20036;-73
2022/09/29 05:41:32;;;;;;;6.95;4.10;;;25.20;58.60;;;;;;5031554;28;20474;-74
2022/09/29 05:44:00;;;;;;;9.13;4.60;;;25.30;58.30;;;;;;5033018;28;20037;-75
2022/09/29 05:46:26;;;;;;;9.32;4.90;;;25.30;61.80;;;;;;5031316;28;20026;-71
2022/09/29 05:48:52;;;;;;;12.57;4.53;;;25.30;59.00;;;;;;5031237;28;20110;-71
2022/09/29 05:51:40;;;;;;;7.47;4.63;;;25.50;57.80;;;;;;5031195;28;20033;-70
2022/09/29 05:54:06;;;;;;;7.97;4.00;;;25.50;57.40;;;;;;4995906;28;20049;-69
2022/09/29 05:56:32;;;;;;;7.97;3.90;;;25.50;56.80;;;;;;4990895;28;20069;-70
2022/09/29 05:59:00;;;;;;;9.55;4.25;;;25.40;56.30;;;;;;5003820;28;20421;-69
2022/09/29 06:01:46;;;;;;;11.20;4.70;;;25.30;55.90;;;;;;4990622;28;20038;-69
2022/09/29 06:04:12;;;;;;;14.30;5.05;;;25.50;55.60;;;;;;4934951;28;20066;-70
2022/09/29 06:06:39;;;;;;;8.90;4.68;;;25.50;55.30;;;;;;4966722;28;20042;-70
2022/09/29 06:09:06;;;;;;;12.88;4.88;;;25.40;55.00;;;;;;4964518;28;20086;-69
2022/09/29 06:11:32;;;;;;;7.50;4.45;;;25.40;54.80;;;;;;4971015;28;20111;-69
2022/09/29 06:14:00;;;;;;;6.00;3.83;;;25.50;54.70;;;;;;4969276;28;20643;-69
2022/09/29 06:16:28;;;;;;;11.27;5.53;;;25.30;54.30;;;;;;4922849;28;20065;-70
2022/09/29 06:18:55;;;;;;;11.65;5.65;;;25.50;54.70;;;;;;4904298;29;20078;-71
2022/09/29 06:21:23;;;;;;;11.57;7.57;;;25.40;54.50;;;;;;4930436;29;20069;-71
2022/09/29 06:23:51;;;;;;;12.43;7.25;;;25.30;54.10;;;;;;4945885;29;20055;-70
2022/09/29 06:26:18;;;;;;;14.32;5.55;;;25.30;55.40;;;;;;4979286;28;20632;-68
2022/09/29 06:28:44;;;;;;;13.68;6.18;;;25.30;55.60;;;;;;4988834;28;20034;-72
2022/09/29 06:31:16;;;;;;;14.90;6.35;;;25.40;55.50;;;;;;4997888;28;20456;-72
2022/09/29 06:33:43;;;;;;;11.95;6.70;;;25.40;55.50;;;;;;4988629;28;20189;-71
2022/09/29 06:39:11;;;;;;;20.33;6.50;;;25.30;55.60;;;;;;5022042;28;20200;-69
2022/09/29 06:41:37;;;;;;;10.50;6.85;;;25.30;55.60;;;;;;5024724;28;20466;-73
2022/09/29 06:44:04;;;;;;;10.43;5.65;;;25.50;55.70;;;;;;5022200;28;20047;-67
2022/09/29 06:46:30;;;;;;;12.55;6.75;;;25.40;55.80;;;;;;5021530;28;20445;-71
2022/09/29 06:48:56;;;;;;;16.83;7.15;;;25.40;55.80;;;;;;5025637;28;20065;-71
2022/09/29 06:51:24;;;;;;;16.33;5.93;;;25.40;55.80;;;;;;5025145;28;20501;-72
2022/09/29 06:53:50;;;;;;;16.08;6.45;;;25.40;55.80;;;;;;4983309;28;20140;-68
2022/09/29 06:56:18;;;;;;;15.13;5.60;;;25.50;55.80;;;;;;4986072;28;20081;-72
2022/09/29 06:58:45;;;;;;;6.35;3.90;;;25.50;55.80;;;;;;4985984;28;20452;-71
2022/09/29 07:01:11;;;;;;;12.43;5.55;;;25.50;55.90;;;;;;4970761;28;20176;-72
2022/09/29 07:03:38;;;;;;;13.60;6.78;;;25.50;55.90;;;;;;4986704;28;20073;-70
2022/09/29 07:06:07;;;;;;;12.90;5.97;;;25.50;55.90;;;;;;4970045;28;20049;-73
2022/09/29 07:08:35;;;;;;;12.82;5.63;;;25.50;56.10;;;;;;4986264;28;20044;-71
2022/09/29 07:11:04;;;;;;;11.63;5.95;;;25.50;56.10;;;;;;4986652;28;20023;-71
2022/09/29 07:13:31;;;;;;;6.88;5.10;;;25.50;56.10;;;;;;4987404;28;20455;-71
2022/09/29 07:16:06;;;;;;;13.25;5.32;;;25.40;56.20;;;;;;4989399;28;20061;-71
2022/09/29 07:18:34;;;;;;;16.13;5.32;;;25.40;55.60;;;;;;4989101;28;20105;-72
2022/09/29 07:21:00;;;;;;;13.95;5.55;;;25.40;55.30;;;;;;4961034;28;20447;-71
2022/09/29 07:23:26;;;;;;;11.07;5.63;;;25.50;55.10;;;;;;4970038;28;20058;-72
2022/09/29 07:25:52;;;;;;;8.85;4.82;;;25.50;55.80;;;;;;5021920;28;20052;-71
2022/09/29 07:28:18;;;;;;;6.30;5.38;;;25.50;56.10;;;;;;5030612;28;20029;-72
2022/09/29 07:30:44;;;;;;;8.90;4.82;;;25.50;56.00;;;;;;5030534;28;20083;-71
2022/09/29 07:33:10;;;;;;;12.93;4.90;;;25.60;55.90;;;;;;5028949;28;20554;-72
2022/09/29 07:35:36;;;;;;;7.47;4.45;;;25.60;55.90;;;;;;5030092;28;20116;-71
2022/09/29 07:38:02;;;;;;;7.63;4.93;;;25.60;55.70;;;;;;5030271;28;20065;-72
2022/09/29 07:40:29;;;;;;;10.57;4.40;;;25.40;55.60;;;;;;5029008;28;20065;-71
2022/09/29 07:42:55;;;;;;;8.32;5.10;;;25.50;55.30;;;;;;5030262;28;20033;-72
2022/09/29 07:45:21;;;;;;;7.43;5.07;;;25.60;53.30;;;;;;5012649;28;20042;-71
2022/09/29 07:47:47;;;;;;;10.48;5.03;;;25.50;54.80;;;;;;5031245;28;20351;-71
2022/09/29 07:50:13;;;;;;;11.23;5.22;;;25.50;54.10;;;;;;5033139;28;20060;-71
2022/09/29 07:52:39;;;;;;;7.43;3.70;;;25.60;55.10;;;;;;5035288;28;20538;-72
2022/09/29 07:55:06;;;;;;;8.93;4.43;;;25.60;55.10;;;;;;5035185;28;20026;-71
2022/09/29 07:57:32;;;;;;;8.65;4.25;;;25.60;55.10;;;;;;5034829;28;20532;-73
2022/09/29 07:59:58;;;;;;;6.88;4.47;;;25.50;55.00;;;;;;5033939;28;20033;-72
2022/09/29 08:02:24;;;;;;;10.02;4.20;;;25.60;54.90;;;;;;5033683;28;20037;-71
2022/09/29 08:04:50;;;;;;;9.13;4.28;;;25.60;54.80;;;;;;5034777;28;20057;-72
2022/09/29 08:07:16;;;;;;;6.05;4.05;;;25.50;54.80;;;;;;5028156;28;20473;-71
2022/09/29 08:09:43;;;;;;;6.00;3.55;;;25.40;54.80;;;;;;4996759;28;20045;-71
2022/09/29 08:12:09;;;;;;;7.35;4.28;;;25.50;54.60;;;;;;5013453;28;20079;-69
2022/09/29 08:14:36;;;;;;;10.52;4.03;;;25.50;54.70;;;;;;5000230;28;20038;-73
2022/09/29 08:17:02;;;;;;;8.63;3.95;;;25.50;54.90;;;;;;4985340;28;20046;-73
2022/09/29 08:19:29;;;;;;;7.75;4.30;;;25.60;54.90;;;;;;4996856;28;20045;-70
2022/09/29 08:21:55;;;;;;;5.07;3.85;;;25.50;54.90;;;;;;5012409;28;20029;-72
2022/09/29 08:24:21;;;;;;;12.27;4.45;;;25.50;55.00;;;;;;4996187;28;20022;-67
2022/09/29 08:26:47;;;;;;;3.58;3.00;;;25.60;55.20;;;;;;4997556;28;20084;-69
2022/09/29 08:29:13;;;;;;;9.38;3.20;;;25.50;53.80;;;;;;5001797;28;20036;-68
2022/09/29 08:31:39;;;;;;;5.68;2.83;;;25.50;52.40;;;;;;5005140;28;20052;-69
2022/09/29 08:34:06;;;;;;;4.97;2.35;;;25.60;51.40;;;;;;5000035;28;20038;-68
2022/09/29 08:36:32;;;;;;;5.32;3.38;;;25.70;51.40;;;;;;5034070;28;20108;-69
2022/09/29 08:38:59;;;;;;;4.20;3.20;;;25.60;51.60;;;;;;5004642;28;20038;-68
2022/09/29 08:41:33;;;;;;;4.75;2.75;;;25.70;52.30;;;;;;5005400;28;20030;-69
2022/09/29 08:44:20;;;;;;;6.57;3.50;;;25.80;52.30;;;;;;4990901;28;20485;-71
2022/09/29 08:46:53;;;;;;;8.52;4.10;;;25.90;54.90;;;;;;4918273;29;20044;-68
2022/09/29 08:49:28;;;;;;;6.57;3.95;;;25.90;55.30;;;;;;4934098;29;20078;-68
2022/09/29 08:52:01;;;;;;;6.20;4.20;;;25.90;55.20;;;;;;4934181;29;20052;-69
2022/09/29 08:54:32;;;;;;;6.65;3.60;;;25.80;55.00;;;;;;4934425;29;20038;-68
2022/09/29 08:56:59;;;;;;;5.90;4.30;;;25.90;55.50;;;;;;4934144;29;20175;-69
2022/09/29 08:59:28;;;;;;;8.63;3.80;;;25.80;55.10;;;;;;4933838;29;20135;-69
2022/09/29 09:02:23;;;;;;;6.85;4.82;;;25.80;55.00;;;;;;4932946;29;20492;-69
2022/09/29 09:05:06;;;;;;;9.18;3.85;;;25.70;54.70;;;;;;4971517;28;20463;-68
2022/09/29 09:07:44;;;;;;;10.27;3.65;;;25.70;54.40;;;;;;4956581;28;20133;-69
2022/09/29 09:10:20;;;;;;;4.50;3.38;;;25.80;54.30;;;;;;4978512;28;20535;-69
2022/09/29 09:13:13;;;;;;;5.97;3.58;;;25.70;54.00;;;;;;4971228;28;20108;-68
2022/09/29 09:16:00;;;;;;;5.97;4.00;;;25.80;54.40;;;;;;4971210;28;20488;-68
2022/09/29 09:18:50;;;;;;;8.57;3.83;;;25.70;54.40;;;;;;4981824;28;20042;-68
2022/09/29 09:21:40;;;;;;;12.00;3.80;;;25.80;54.60;;;;;;4985026;28;20038;-69
2022/09/29 09:24:30;;;;;;;3.63;2.80;;;25.70;54.70;;;;;;5001396;28;20127;-69
2022/09/29 09:26:58;;;;;;;4.72;3.60;;;25.70;55.00;;;;;;5031919;28;20113;-68
2022/09/29 09:29:33;;;;;;;5.18;3.22;;;25.70;55.80;;;;;;5032173;28;20669;-69
2022/09/29 09:32:07;;;;;;;4.55;3.03;;;25.70;56.00;;;;;;5030881;28;20026;-68
2022/09/29 09:34:43;;;;;;;5.50;3.47;;;25.80;56.00;;;;;;5032244;28;20067;-68
2022/09/29 09:37:33;;;;;;;4.90;3.85;;;25.70;55.40;;;;;;5031935;28;20033;-68
2022/09/29 09:40:26;;;;;;;8.73;4.43;;;25.70;56.10;;;;;;5031731;28;20033;-67
2022/09/29 09:43:05;;;;;;;7.97;3.65;;;25.70;56.20;;;;;;5031993;28;20090;-68
2022/09/29 09:45:36;;;;;;;5.35;2.97;;;25.70;55.70;;;;;;5009473;28;20084;-69
2022/09/29 09:48:18;;;;;;;3.47;3.13;;;25.90;55.60;;;;;;5009576;28;20041;-68
2022/09/29 09:50:48;;;;;;;2.88;2.30;;;25.90;55.90;;;;;;5030224;28;20072;-69
2022/09/29 09:53:36;;;;;;;5.22;2.95;;;25.80;56.00;;;;;;5012925;28;20662;-69
2022/09/29 09:56:39;;;;;;;3.58;2.45;;;25.70;56.00;;;;;;5031556;28;20033;-68
2022/09/29 09:59:43;;;;;;;7.85;2.50;;;25.60;55.80;;;;;;5030872;28;20029;-67
2022/09/29 10:02:21;;;;;;;2.67;2.22;;;25.70;56.00;;;;;;5028892;28;20034;-67
2022/09/29 10:04:50;;;;;;;1.02;1.02;;;25.70;54.00;;;;;;5029114;28;20060;-69
2022/09/29 10:07:18;;;;;;;1.75;1.05;;;25.70;56.60;;;;;;5032389;28;20486;-67
2022/09/29 10:09:45;;;;;;;1.58;0.68;;;25.70;56.70;;;;;;5027773;28;20072;-70
2022/09/29 10:12:16;;;;;;;1.88;1.55;;;25.80;57.30;;;;;;5032480;28;20075;-68
2022/09/29 10:15:21;;;;;;;0.82;0.82;;;26.10;59.50;;;;;;5031843;28;20041;-67
2022/09/29 10:17:57;;;;;;;0.93;0.90;;;26.20;58.20;;;;;;4949968;29;20118;-68
2022/09/29 10:20:49;;;;;;;5.40;3.50;;;26.20;58.90;;;;;;4948267;29;20050;-69
2022/09/29 10:23:35;;;;;;;2.97;2.27;;;26.30;59.20;;;;;;4913454;29;20048;-68
2022/09/29 10:26:12;;;;;;;0.55;0.55;;;26.40;58.20;;;;;;4895518;29;20051;-66
2022/09/29 10:28:48;;;;;;;3.22;2.30;;;26.40;57.90;;;;;;4906173;29;20128;-68
2022/09/29 10:31:21;;;;;;;10.55;2.70;;;26.30;55.00;;;;;;4895681;29;20469;-67
2022/09/29 10:33:57;;;;;;;5.28;2.28;;;26.30;54.50;;;;;;4912943;29;20044;-67
2022/09/29 10:36:27;;;;;;;4.65;2.47;;;26.30;54.50;;;;;;4911120;29;20109;-69
2022/09/29 10:38:53;;;;;;;3.00;1.67;;;26.30;54.30;;;;;;4912317;29;20761;-67
2022/09/29 10:41:19;;;;;;;1.58;1.48;;;26.30;54.80;;;;;;4913039;29;20090;-67
2022/09/29 10:43:47;;;;;;;0.80;0.80;;;26.30;54.60;;;;;;4910707;29;20096;-68
2022/09/29 10:46:36;;;;;;;0.73;0.73;;;26.30;54.50;;;;;;4908644;29;20044;-68
2022/09/29 10:49:21;;;;;;;2.17;1.08;;;26.20;54.40;;;;;;4912566;29;20099;-68
2022/09/29 10:51:59;;;;;;;1.73;1.35;;;26.20;54.30;;;;;;4945530;28;20493;-67
2022/09/29 10:54:28;;;;;;;2.20;1.35;;;26.30;54.20;;;;;;4979832;28;20538;-68
2022/09/29 10:56:55;;;;;;;0.70;0.70;;;26.30;54.90;;;;;;4975807;28;20458;-67
2022/09/29 10:59:23;;;;;;;0.73;0.73;;;26.40;55.20;;;;;;4983016;28;20045;-67
2022/09/29 11:01:56;;;;;;;2.17;1.85;;;26.30;55.40;;;;;;5007544;28;20533;-67
2022/09/29 11:04:28;;;;;;;2.22;1.83;;;26.40;55.00;;;;;;5024488;28;20053;-67
2022/09/29 11:06:56;;;;;;;0.90;0.90;;;26.20;54.10;;;;;;5027591;28;20127;-67
2022/09/29 11:09:22;;;;;;;0.50;0.50;;;26.20;54.20;;;;;;5029360;28;20029;-67
2022/09/29 11:11:48;;;;;;;3.15;1.23;;;26.20;54.10;;;;;;5007756;28;20046;-67
2022/09/29 11:14:28;;;;;;;1.55;1.42;;;26.30;54.10;;;;;;5008782;28;20056;-67
2022/09/29 11:16:59;;;;;;;1.55;1.27;;;26.40;54.00;;;;;;5008820;28;20763;-67
2022/09/29 11:19:28;;;;;;;2.33;1.38;;;26.30;54.00;;;;;;5010347;28;20602;-67
2022/09/29 11:22:32;;;;;;;4.88;2.80;;;26.20;53.90;;;;;;5014272;28;20053;-67
2022/09/29 11:25:40;;;;;;;2.80;2.30;;;26.20;53.80;;;;;;5005824;28;20073;-69
2022/09/29 11:28:16;;;;;;;4.50;1.98;;;26.20;55.30;;;;;;4924785;29;20036;-69
2022/09/29 11:31:01;;;;;;;2.67;2.28;;;26.20;55.00;;;;;;4941439;29;20035;-69
2022/09/29 11:34:04;;;;;;;2.35;1.75;;;26.10;54.20;;;;;;4946407;29;20039;-68
2022/09/29 11:37:05;;;;;;;2.13;1.75;;;26.10;53.90;;;;;;4924355;29;20417;-72
2022/09/29 11:39:44;;;;;;;3.28;1.95;;;26.00;53.90;;;;;;4913239;29;20044;-72
2022/09/29 11:42:36;;;;;;;4.90;2.20;;;26.10;54.50;;;;;;4937260;28;20042;-72
2022/09/29 11:45:07;;;;;;;2.15;1.80;;;26.10;54.30;;;;;;4989022;28;20057;-72
2022/09/29 11:47:36;;;;;;;4.47;1.92;;;26.00;52.90;;;;;;4988428;28;20404;-71
2022/09/29 11:50:38;;;;;;;2.90;1.80;;;26.10;52.30;;;;;;4958972;28;20110;-71
2022/09/29 11:53:17;;;;;;;3.17;1.67;;;26.10;52.20;;;;;;4950379;29;20492;-71
2022/09/29 11:55:46;;;;;;;4.20;1.80;;;26.10;53.80;;;;;;4971130;28;20643;-71
2022/09/29 11:58:45;;;;;;;2.80;1.83;;;26.10;54.10;;;;;;4954991;28;20043;-71
2022/09/29 12:01:29;;;;;;;5.60;1.90;;;26.20;54.30;;;;;;4955865;28;20037;-71
2022/09/29 12:04:06;;;;;;;4.43;2.13;;;26.20;54.50;;;;;;4972347;28;20051;-72
2022/09/29 12:06:47;;;;;;;7.13;2.13;;;26.20;54.50;;;;;;5028683;28;20073;-71
2022/09/29 12:09:13;;;;;;;2.00;1.80;;;26.20;53.30;;;;;;5029344;28;20045;-71
2022/09/29 12:12:06;;;;;;;2.83;1.80;;;26.20;52.50;;;;;;5029055;28;20043;-71
2022/09/29 12:14:44;;;;;;;3.25;2.40;;;26.20;51.60;;;;;;5028020;28;20497;-71
2022/09/29 12:17:15;;;;;;;4.95;1.98;;;26.20;52.50;;;;;;5028933;28;20401;-71
2022/09/29 12:19:44;;;;;;;4.75;1.80;;;26.20;51.60;;;;;;5028094;28;20030;-71
2022/09/29 12:22:17;;;;;;;3.20;2.38;;;26.10;53.30;;;;;;5030632;28;20095;-71
2022/09/29 12:24:49;;;;;;;2.97;2.58;;;26.20;53.40;;;;;;5026747;28;20530;-71
2022/09/29 12:27:33;;;;;;;4.03;2.80;;;26.20;53.10;;;;;;5025406;28;20099;-71
2022/09/29 12:30:32;;;;;;;7.05;2.47;;;26.10;53.80;;;;;;5019430;28;20053;-71
2022/09/29 12:33:07;;;;;;;4.28;2.13;;;26.00;53.90;;;;;;5024083;28;20036;-70
2022/09/29 12:35:38;;;;;;;8.68;2.90;;;26.10;54.10;;;;;;5018977;28;20044;-72
2022/09/29 12:38:14;;;;;;;6.15;2.85;;;26.10;54.10;;;;;;5019018;28;20021;-71
2022/09/29 12:41:01;;;;;;;9.18;2.70;;;26.10;53.80;;;;;;5027321;28;20069;-70
2022/09/29 12:44:04;;;;;;;3.70;2.50;;;26.00;54.10;;;;;;5022605;28;20018;-71
2022/09/29 12:46:49;;;;;;;;;;;26.10;53.20;;;;;;5012755;28;20045;-72
2022/09/29 12:49:18;;;;;;;7.38;2.38;;;26.00;54.30;;;;;;5027800;28;20408;-71
2022/09/29 12:51:46;;;;;;;5.85;2.58;;;26.10;54.50;;;;;;5014600;28;20221;-72
2022/09/29 12:54:30;;;;;;;4.05;2.05;;;26.10;54.70;;;;;;5030754;28;20037;-71
2022/09/29 12:57:14;;;;;;;5.13;2.15;;;26.20;54.50;;;;;;4998377;28;20372;-72
2022/09/29 12:59:58;;;;;;;6.65;2.65;;;26.20;53.90;;;;;;5031601;28;20067;-70
2022/09/29 13:02:54;;;;;;;6.88;3.53;;;26.20;54.40;;;;;;5019563;28;20038;-71
2022/09/29 13:05:43;;;;;;;9.05;2.80;;;26.10;54.50;;;;;;5041895;28;20398;-72
2022/09/29 13:08:39;;;;;;;4.32;2.38;;;26.10;54.60;;;;;;5046257;28;21775;-72
2022/09/29 13:11:33;;;;;;;7.97;3.38;;;26.20;53.90;;;;;;5030265;28;20132;-68
2022/09/29 13:14:37;;;;;;;6.80;2.70;;;26.10;53.70;;;;;;5028738;28;20021;-68
2022/09/29 13:17:18;;;;;;;4.90;3.22;;;26.10;55.90;;;;;;5030851;28;20127;-68